Time;durP1;ratioP1;P1;durP2;ratioP2;P2;SDS_P1;SDS_P2;PMS_P1;PMS_P2;Temp;Humidity;BMP_temperature;BMP_pressure;BME280_temperature;BME280_humidity;BME280_pressure;Samples;Min_cycle;Max_cycle;Signal;HPM_P1;HPM_P2
2022/06/16 00:00:51;;;;;;;7.68;3.35;;;;;;;18.33;55.44;101679.59;5034450;28;20158;-71
2022/06/16 00:03:17;;;;;;;6.43;3.05;;;;;;;18.30;55.29;101674.59;5073922;28;20061;-72
2022/06/16 00:05:44;;;;;;;4.70;3.05;;;;;;;18.21;55.50;101679.72;5063922;28;20028;-72
2022/06/16 00:08:13;;;;;;;6.63;3.28;;;;;;;18.14;55.80;101674.41;5053679;28;20104;-71
2022/06/16 00:13:23;;;;;;;9.23;3.33;;;;;;;18.13;55.80;101674.69;5075422;28;20032;-71
2022/06/16 00:15:49;;;;;;;5.90;3.67;;;;;;;18.05;55.66;101679.50;5047886;28;20037;-72
2022/06/16 00:18:14;;;;;;;8.63;3.90;;;;;;;18.01;55.95;101678.38;5037572;28;20032;-70
2022/06/16 00:20:39;;;;;;;7.05;3.65;;;;;;;17.96;56.49;101674.75;5037285;28;20025;-73
2022/06/16 00:23:05;;;;;;;8.98;3.70;;;;;;;18.01;55.57;101683.88;5037492;28;20361;-73
2022/06/16 00:25:32;;;;;;;7.60;3.60;;;;;;;17.94;56.39;101683.22;5043566;28;20036;-72
2022/06/16 00:27:57;;;;;;;7.95;3.58;;;;;;;17.91;56.30;101685.66;5057261;28;20467;-70
2022/06/16 00:30:23;;;;;;;7.30;3.80;;;;;;;17.96;55.78;101680.22;5057073;28;20059;-73
2022/06/16 00:32:48;;;;;;;9.02;3.72;;;;;;;17.86;56.19;101686.34;5057283;28;20022;-72
2022/06/16 00:35:13;;;;;;;6.03;3.38;;;;;;;17.78;56.31;101687.63;5052963;28;20024;-74
2022/06/16 00:37:39;;;;;;;10.32;3.80;;;;;;;17.77;55.73;101683.25;5036745;28;20029;-73
2022/06/16 00:40:05;;;;;;;4.80;3.63;;;;;;;17.65;56.20;101688.81;5054895;28;20441;-71
2022/06/16 00:42:30;;;;;;;7.88;3.90;;;;;;;17.63;56.28;101698.38;5036571;28;20116;-72
2022/06/16 00:44:57;;;;;;;8.40;4.07;;;;;;;17.59;56.46;101698.06;5038274;28;20115;-72
2022/06/16 00:47:26;;;;;;;10.93;4.15;;;;;;;17.53;56.36;101694.41;5056626;28;20028;-72
2022/06/16 00:49:55;;;;;;;8.48;4.22;;;;;;;17.49;56.79;101698.72;5074442;28;20104;-71
2022/06/16 00:52:30;;;;;;;10.60;3.90;;;;;;;17.48;56.36;101696.22;5074688;28;20060;-72
2022/06/16 00:55:07;;;;;;;9.30;4.60;;;;;;;17.45;55.69;101694.84;5073152;28;20028;-73
2022/06/16 00:57:37;;;;;;;6.25;4.15;;;;;;;17.50;56.40;101705.84;5054564;28;20435;-72
2022/06/16 01:00:16;;;;;;;7.78;3.97;;;;;;;17.39;56.64;101708.69;5054505;28;20029;-73
2022/06/16 01:02:41;;;;;;;7.72;4.70;;;;;;;17.34;56.19;101706.69;5086121;28;20127;-74
2022/06/16 01:05:07;;;;;;;8.82;4.70;;;;;;;17.30;56.75;101706.38;5091279;28;20559;-73
2022/06/16 01:07:40;;;;;;;9.02;4.07;;;;;;;17.33;56.87;101707.75;5074506;28;20024;-72
2022/06/16 01:10:07;;;;;;;7.97;3.67;;;;;;;17.29;56.37;101720.31;5073369;28;20051;-71
2022/06/16 01:15:59;;;;;;;6.15;4.05;;;;;;;17.28;56.25;101710.44;5067321;28;20118;-72
2022/06/16 01:18:41;;;;;;;10.77;4.20;;;;;;;17.24;56.26;101718.31;5053958;28;20036;-70
2022/06/16 01:21:25;;;;;;;10.07;3.80;;;;;;;17.18;56.66;101719.28;5054119;28;20033;-70
2022/06/16 01:23:53;;;;;;;7.38;4.22;;;;;;;17.10;56.68;101717.78;5053516;28;20044;-73
2022/06/16 01:26:36;;;;;;;7.05;4.25;;;;;;;17.15;56.34;101726.09;5066131;28;20049;-69
2022/06/16 01:29:36;;;;;;;8.40;4.05;;;;;;;17.05;56.32;101725.91;5056059;28;20036;-69
2022/06/16 01:32:16;;;;;;;9.65;4.45;;;;;;;17.07;56.73;101729.22;5074295;28;20078;-73
2022/06/16 01:34:52;;;;;;;8.63;4.53;;;;;;;17.04;57.38;101728.91;5072710;28;20090;-70
2022/06/16 01:37:17;;;;;;;6.35;4.10;;;;;;;16.99;57.42;101735.94;5054215;28;20036;-76
2022/06/16 01:39:49;;;;;;;8.20;4.20;;;;;;;16.98;56.80;101733.44;5054029;28;20032;-71
2022/06/16 01:42:44;;;;;;;8.10;3.97;;;;;;;17.05;56.81;101736.84;5061705;28;20066;-73
2022/06/16 01:45:28;;;;;;;7.45;4.20;;;;;;;16.91;56.99;101730.03;5069817;28;20108;-72
2022/06/16 01:47:55;;;;;;;6.72;4.07;;;;;;;16.92;57.21;101723.50;5073955;28;20543;-73
2022/06/16 01:50:28;;;;;;;6.47;4.38;;;;;;;16.99;58.07;101732.38;5073819;28;20455;-74
2022/06/16 01:53:00;;;;;;;9.73;4.32;;;;;;;16.95;58.20;101731.19;5061517;28;20040;-72
2022/06/16 01:55:31;;;;;;;9.35;4.25;;;;;;;16.94;58.04;101727.66;5035924;28;20116;-70
2022/06/16 01:58:05;;;;;;;9.43;4.45;;;;;;;16.87;58.38;101739.81;5053269;28;20072;-75
2022/06/16 02:00:32;;;;;;;8.27;4.00;;;;;;;16.75;58.19;101743.38;5051178;28;20029;-72
2022/06/16 02:03:03;;;;;;;7.00;4.30;;;;;;;16.78;58.53;101744.81;5078702;28;20051;-75
2022/06/16 02:05:32;;;;;;;9.23;4.50;;;;;;;16.75;58.57;101743.38;5055439;28;20032;-70
2022/06/16 02:08:15;;;;;;;6.80;4.45;;;;;;;16.67;58.74;101746.53;5073534;28;20024;-75
2022/06/16 02:10:45;;;;;;;8.40;4.40;;;;;;;16.56;59.51;101736.47;5073189;28;20036;-73
2022/06/16 02:13:15;;;;;;;8.10;4.53;;;;;;;16.54;59.46;101730.41;5059457;28;20036;-75
2022/06/16 02:15:54;;;;;;;8.60;4.25;;;;;;;16.57;59.30;101719.00;5053205;28;20028;-75
2022/06/16 02:18:25;;;;;;;8.23;4.72;;;;;;;16.50;60.12;101721.88;5053333;28;20043;-74
2022/06/16 02:20:53;;;;;;;8.45;4.40;;;;;;;16.53;59.60;101724.13;5053069;28;20027;-73
2022/06/16 02:23:19;;;;;;;9.13;4.70;;;;;;;16.49;59.18;101733.88;5067541;28;20047;-70
2022/06/16 02:25:48;;;;;;;7.65;4.50;;;;;;;16.35;60.04;101733.34;5072920;28;20033;-76
2022/06/16 02:28:15;;;;;;;10.45;4.40;;;;;;;16.38;59.48;101738.31;5071897;28;20464;-71
2022/06/16 02:31:06;;;;;;;9.80;4.30;;;;;;;16.26;60.40;101740.22;5072845;28;20075;-78
2022/06/16 02:33:44;;;;;;;10.37;4.70;;;;;;;16.29;59.99;101745.25;5056435;28;20104;-73
2022/06/16 02:36:47;;;;;;;10.80;4.63;;;;;;;16.23;59.99;101757.94;5052244;28;20064;-72
2022/06/16 02:39:37;;;;;;;8.30;4.70;;;;;;;16.09;60.54;101773.75;5052683;28;20021;-72
2022/06/16 02:42:14;;;;;;;7.78;4.75;;;;;;;16.02;60.21;101783.13;5055346;28;20024;-72
2022/06/16 02:45:01;;;;;;;9.82;5.22;;;;;;;16.05;60.78;101778.03;5072602;28;20028;-73
2022/06/16 02:47:54;;;;;;;15.10;5.03;;;;;;;16.06;60.64;101781.59;5051213;28;20672;-72
2022/06/16 02:50:38;;;;;;;9.95;4.97;;;;;;;15.94;61.09;101793.38;5052379;28;20112;-72
2022/06/16 02:53:35;;;;;;;8.52;4.90;;;;;;;15.93;60.92;101785.41;5052502;28;20595;-72
2022/06/16 02:56:09;;;;;;;8.40;4.57;;;;;;;15.90;60.69;101785.88;5034777;28;20157;-72
2022/06/16 02:58:38;;;;;;;8.77;4.78;;;;;;;15.88;60.41;101783.41;5069267;28;20032;-72
2022/06/16 03:01:06;;;;;;;11.32;4.75;;;;;;;15.89;61.48;101784.22;5073181;28;20048;-72
2022/06/16 03:03:36;;;;;;;14.75;4.93;;;;;;;15.82;61.30;101786.22;5092492;28;20217;-72
2022/06/16 03:06:02;;;;;;;10.70;4.80;;;;;;;15.86;61.42;101787.44;5092836;28;20024;-71
2022/06/16 03:08:30;;;;;;;7.85;4.68;;;;;;;15.86;61.71;101790.16;5075697;28;20042;-71
2022/06/16 03:10:58;;;;;;;10.23;4.63;;;;;;;15.72;61.28;101784.88;5072385;28;20029;-71
2022/06/16 03:13:30;;;;;;;10.57;5.00;;;;;;;15.80;61.59;101786.47;5072576;28;20029;-71
2022/06/16 03:15:58;;;;;;;10.25;4.82;;;;;;;15.72;62.33;101786.81;5072339;28;20480;-71
2022/06/16 03:18:24;;;;;;;8.32;4.80;;;;;;;15.60;61.99;101782.16;5039500;28;20120;-72
2022/06/16 03:20:50;;;;;;;8.32;5.13;;;;;;;15.64;61.53;101782.53;5052183;28;20040;-72
2022/06/16 03:23:17;;;;;;;9.93;4.82;;;;;;;15.65;61.83;101786.91;5052163;28;20045;-72
2022/06/16 03:25:43;;;;;;;8.05;5.07;;;;;;;15.54;61.85;101787.72;5052241;28;20037;-72
2022/06/16 03:28:09;;;;;;;7.00;5.13;;;;;;;15.59;62.04;101782.38;5064790;28;20028;-72
2022/06/16 03:30:38;;;;;;;10.15;5.00;;;;;;;15.53;62.02;101780.59;5072241;28;20031;-72
2022/06/16 03:33:04;;;;;;;7.45;4.97;;;;;;;15.53;61.53;101783.34;5072382;28;20078;-72
2022/06/16 03:35:30;;;;;;;7.45;5.10;;;;;;;15.55;61.39;101779.31;5072255;28;20033;-72
2022/06/16 03:37:56;;;;;;;11.07;5.22;;;;;;;15.53;62.13;101783.34;5061482;28;20029;-72
2022/06/16 03:40:22;;;;;;;10.40;5.57;;;;;;;15.41;61.81;101794.22;5052272;28;20093;-72
2022/06/16 03:42:48;;;;;;;10.95;5.28;;;;;;;15.37;62.57;101799.31;5034129;28;20495;-72
2022/06/16 03:45:13;;;;;;;9.85;4.88;;;;;;;15.38;62.36;101801.00;5052391;28;20031;-72
2022/06/16 03:47:38;;;;;;;11.52;5.53;;;;;;;15.36;62.36;101802.28;5062015;28;20112;-72
2022/06/16 03:50:05;;;;;;;6.80;5.50;;;;;;;15.36;62.21;101807.75;5076469;28;20035;-72
2022/06/16 03:52:30;;;;;;;11.48;6.10;;;;;;;15.24;62.59;101811.25;5076147;28;20029;-72
2022/06/16 03:54:55;;;;;;;9.48;5.22;;;;;;;15.23;62.80;101804.16;5075852;28;20039;-72
2022/06/16 03:57:21;;;;;;;10.40;5.28;;;;;;;15.31;62.34;101813.91;5049561;28;20396;-71
2022/06/16 03:59:46;;;;;;;10.75;4.93;;;;;;;15.35;62.89;101825.16;5035930;28;20037;-71
2022/06/16 04:02:11;;;;;;;11.82;5.20;;;;;;;15.24;62.48;101826.78;5052464;28;20155;-71
2022/06/16 04:04:37;;;;;;;9.15;5.20;;;;;;;15.19;62.91;101832.94;5076046;28;20056;-72
2022/06/16 04:07:02;;;;;;;7.72;5.45;;;;;;;15.15;63.13;101831.72;5072880;28;20074;-72
2022/06/16 04:09:28;;;;;;;9.45;5.38;;;;;;;15.13;63.27;101835.78;5055805;28;20437;-72
2022/06/16 04:11:53;;;;;;;11.60;5.32;;;;;;;15.18;62.52;101834.00;5055333;28;20024;-72
2022/06/16 04:14:18;;;;;;;15.90;5.45;;;;;;;15.21;63.61;101840.88;5054545;28;20025;-72
2022/06/16 04:16:48;;;;;;;9.27;5.00;;;;;;;15.13;62.98;101843.97;5054235;28;20095;-72
2022/06/16 04:19:18;;;;;;;7.95;5.35;;;;;;;15.18;62.99;101838.63;5033999;28;20116;-72
2022/06/16 04:21:45;;;;;;;8.38;4.88;;;;;;;15.12;62.51;101840.38;5035267;28;20021;-72
2022/06/16 04:24:12;;;;;;;11.80;5.40;;;;;;;15.14;61.99;101838.28;5035355;28;20444;-72
2022/06/16 04:26:38;;;;;;;13.30;5.35;;;;;;;15.07;62.46;101837.53;5035374;28;20032;-72
2022/06/16 04:29:08;;;;;;;9.93;5.60;;;;;;;15.12;63.36;101839.56;5067328;28;20068;-72
2022/06/16 04:31:34;;;;;;;9.23;5.38;;;;;;;15.21;62.52;101846.34;5055466;28;20032;-72
2022/06/16 04:34:00;;;;;;;8.48;5.57;;;;;;;15.21;62.86;101854.53;5055451;28;20041;-72
2022/06/16 04:36:26;;;;;;;7.15;5.13;;;;;;;15.16;62.18;101849.75;5055315;28;20486;-72
2022/06/16 04:38:53;;;;;;;10.38;5.22;;;;;;;15.24;62.61;101854.06;5053717;28;20029;-73
2022/06/16 04:41:18;;;;;;;9.10;5.25;;;;;;;15.21;62.35;101854.53;5055197;28;20040;-71
2022/06/16 04:43:44;;;;;;;12.02;5.75;;;;;;;15.31;62.53;101860.25;5054992;28;20032;-71
2022/06/16 04:46:12;;;;;;;8.70;5.88;;;;;;;15.31;62.63;101871.16;5054837;28;20037;-71
2022/06/16 04:48:37;;;;;;;7.65;5.78;;;;;;;15.35;62.32;101872.38;5040701;28;20082;-71
2022/06/16 04:51:03;;;;;;;9.32;6.10;;;;;;;15.34;61.38;101872.56;5035105;28;20108;-71
2022/06/16 04:53:30;;;;;;;7.85;5.65;;;;;;;15.36;61.81;101871.28;5035232;28;20069;-72
2022/06/16 04:55:57;;;;;;;11.90;5.63;;;;;;;15.48;62.42;101873.22;5037121;28;20038;-71
2022/06/16 04:58:23;;;;;;;9.27;6.20;;;;;;;15.42;62.38;101873.09;5065461;28;20071;-71
2022/06/16 05:00:50;;;;;;;13.63;7.00;;;;;;;15.52;61.34;101877.13;5073409;28;20024;-71
2022/06/16 05:03:17;;;;;;;11.00;6.22;;;;;;;15.50;61.62;101871.91;5095161;28;20074;-71
2022/06/16 05:05:46;;;;;;;9.43;6.32;;;;;;;15.54;60.75;101883.22;5093576;28;20035;-71
2022/06/16 05:08:12;;;;;;;8.25;6.30;;;;;;;15.52;60.67;101891.63;5083874;28;20495;-71
2022/06/16 05:10:38;;;;;;;11.07;6.35;;;;;;;15.57;60.92;101882.75;5056755;28;20036;-71
2022/06/16 05:13:03;;;;;;;8.95;6.32;;;;;;;15.59;61.30;101888.78;5056663;28;20032;-72
2022/06/16 05:15:28;;;;;;;11.40;6.65;;;;;;;15.64;60.69;101891.66;5074683;28;20418;-71
2022/06/16 05:17:54;;;;;;;13.30;6.03;;;;;;;15.67;59.85;101899.38;5072537;28;20110;-71
2022/06/16 05:20:19;;;;;;;19.85;6.20;;;;;;;15.69;60.72;101905.44;5074246;28;20471;-71
2022/06/16 05:22:44;;;;;;;8.32;5.80;;;;;;;15.77;59.69;101905.09;5073969;28;20461;-72
2022/06/16 05:25:10;;;;;;;8.88;5.78;;;;;;;15.77;59.48;101904.25;5074725;28;20020;-71
2022/06/16 05:27:35;;;;;;;10.45;6.20;;;;;;;15.79;59.38;101909.50;5051909;28;20052;-72
2022/06/16 05:30:02;;;;;;;11.38;6.18;;;;;;;15.85;60.06;101901.25;5054460;28;20031;-72
2022/06/16 05:32:27;;;;;;;7.90;6.10;;;;;;;15.93;59.32;101911.78;5054344;28;20029;-71
2022/06/16 05:34:52;;;;;;;9.48;6.35;;;;;;;15.86;58.40;101908.34;5054011;28;20083;-71
2022/06/16 05:37:18;;;;;;;9.10;6.07;;;;;;;15.88;57.77;101916.28;5055542;28;20111;-71
2022/06/16 05:39:44;;;;;;;9.50;6.13;;;;;;;15.91;58.94;101919.41;5073880;28;20025;-71
2022/06/16 05:42:09;;;;;;;8.40;5.93;;;;;;;15.93;57.88;101924.63;5072851;28;20039;-72
2022/06/16 05:44:36;;;;;;;10.73;5.90;;;;;;;16.02;57.99;101931.41;5074074;28;20025;-71
2022/06/16 05:47:03;;;;;;;8.50;5.95;;;;;;;16.07;57.64;101936.97;5073508;28;20372;-71
2022/06/16 05:49:28;;;;;;;9.98;5.50;;;;;;;16.09;56.58;101940.31;5054175;28;20033;-71
2022/06/16 05:51:53;;;;;;;10.25;5.65;;;;;;;16.15;56.47;101935.78;5053375;28;20025;-72
2022/06/16 05:54:19;;;;;;;8.35;5.57;;;;;;;16.28;57.34;101943.75;5053467;28;20086;-71
2022/06/16 05:56:44;;;;;;;10.52;5.18;;;;;;;16.29;55.63;101933.69;5053198;28;20056;-72
2022/06/16 05:59:10;;;;;;;8.52;5.03;;;;;;;16.30;54.54;101940.78;5070123;28;20478;-72
2022/06/16 06:01:36;;;;;;;7.72;4.88;;;;;;;16.26;54.92;101936.88;5078713;28;20139;-71
2022/06/16 06:04:01;;;;;;;11.23;5.10;;;;;;;16.33;54.51;101951.25;5093586;28;20038;-71
2022/06/16 06:06:26;;;;;;;7.40;4.70;;;;;;;16.30;54.86;101949.84;5075604;28;20028;-71
2022/06/16 06:17:13;;;;;;;10.07;4.30;;;;;;;16.57;52.64;101951.25;5072947;28;20131;-72
2022/06/16 06:19:38;;;;;;;10.65;4.07;;;;;;;16.62;53.66;101954.94;5055252;28;20032;-73
2022/06/16 06:22:13;;;;;;;13.57;4.15;;;;;;;16.69;54.10;101956.72;5073021;28;20028;-74
2022/06/16 06:24:40;;;;;;;9.95;3.88;;;;;;;16.79;51.79;101956.94;5055175;28;20021;-71
2022/06/16 06:27:31;;;;;;;6.25;3.45;;;;;;;16.84;53.06;101948.84;5071316;28;20020;-71
2022/06/16 06:29:56;;;;;;;8.45;3.78;;;;;;;16.86;51.34;101957.63;5052885;28;20438;-70
2022/06/16 06:32:23;;;;;;;10.38;3.60;;;;;;;16.93;52.20;101958.38;5055165;28;20016;-71
2022/06/16 06:34:49;;;;;;;8.70;3.97;;;;;;;16.98;51.57;101961.22;5054774;28;20127;-71
2022/06/16 06:37:16;;;;;;;6.55;3.65;;;;;;;17.05;52.30;101961.09;5054082;28;20111;-71
2022/06/16 06:39:42;;;;;;;6.90;3.50;;;;;;;17.11;50.77;101970.25;5035044;28;20021;-71
2022/06/16 06:42:08;;;;;;;4.15;3.25;;;;;;;17.15;51.00;101966.78;5053249;28;20491;-71
2022/06/16 06:44:34;;;;;;;7.05;3.13;;;;;;;17.18;49.95;101965.44;5072436;28;20039;-71
2022/06/16 06:47:01;;;;;;;6.50;3.45;;;;;;;17.18;50.14;101971.75;5072507;28;20035;-71
2022/06/16 06:49:27;;;;;;;8.73;3.17;;;;;;;17.22;49.93;101968.53;5073165;28;20039;-71
2022/06/16 06:51:52;;;;;;;5.80;3.13;;;;;;;17.23;49.93;101968.28;5066695;28;20033;-71
2022/06/16 06:54:20;;;;;;;5.60;2.80;;;;;;;17.26;50.65;101967.81;5034765;28;20063;-70
2022/06/16 06:56:47;;;;;;;6.93;3.00;;;;;;;17.34;49.49;101975.63;5052431;28;20048;-71
2022/06/16 06:59:16;;;;;;;7.95;2.97;;;;;;;17.34;48.42;101981.09;5062621;28;20043;-71
2022/06/16 07:01:42;;;;;;;6.53;2.50;;;;;;;17.38;48.64;101981.47;5078274;28;20044;-71
2022/06/16 07:04:08;;;;;;;4.43;2.75;;;;;;;17.39;48.34;101990.47;5092599;28;20089;-71
2022/06/16 07:06:33;;;;;;;7.20;2.72;;;;;;;17.35;48.22;101987.41;5074616;28;20027;-71
2022/06/16 07:08:58;;;;;;;7.47;3.08;;;;;;;17.44;47.84;101993.34;5083561;28;20589;-71
2022/06/16 07:11:25;;;;;;;12.10;3.00;;;;;;;17.49;49.38;101996.97;5072512;28;20127;-71
2022/06/16 07:13:50;;;;;;;6.38;2.50;;;;;;;17.54;47.92;101999.00;5054341;28;20379;-71
2022/06/16 07:16:16;;;;;;;7.97;2.33;;;;;;;17.65;47.64;102002.78;5072584;28;20032;-71
2022/06/16 07:18:45;;;;;;;7.85;2.83;;;;;;;17.67;47.13;102017.03;5066097;28;20059;-70
2022/06/16 07:21:10;;;;;;;6.10;2.28;;;;;;;17.70;48.21;102011.06;5051592;28;20056;-71
2022/06/16 07:23:36;;;;;;;8.70;2.38;;;;;;;17.73;47.62;102007.84;5052413;28;20469;-71
2022/06/16 07:26:01;;;;;;;6.78;2.80;;;;;;;17.74;47.37;102012.25;5052195;28;20453;-70
2022/06/16 07:28:27;;;;;;;7.80;2.72;;;;;;;17.88;48.51;102021.81;5054558;28;20048;-71
2022/06/16 07:30:52;;;;;;;5.75;2.35;;;;;;;17.95;48.69;102021.72;5071845;28;20502;-70
2022/06/16 07:33:17;;;;;;;8.10;2.80;;;;;;;17.96;47.75;102028.00;5054391;28;20036;-70
2022/06/16 07:35:44;;;;;;;10.55;3.33;;;;;;;18.04;47.81;102031.19;5072364;28;20029;-70
2022/06/16 07:38:12;;;;;;;7.80;3.00;;;;;;;18.03;48.14;102042.38;5071645;28;20119;-70
2022/06/16 07:40:39;;;;;;;6.85;3.17;;;;;;;18.12;49.27;102040.09;5052544;28;20039;-71
2022/06/16 07:43:05;;;;;;;9.23;3.88;;;;;;;18.07;48.84;102035.31;5052028;28;20086;-70
2022/06/16 07:45:31;;;;;;;6.78;2.95;;;;;;;18.18;49.06;102041.84;5052025;28;20025;-71
2022/06/16 07:48:00;;;;;;;10.73;3.28;;;;;;;18.23;49.34;102048.22;5052084;28;20107;-70
2022/06/16 07:50:26;;;;;;;7.00;3.20;;;;;;;18.18;48.05;102050.06;5051940;28;20040;-70
2022/06/16 07:52:51;;;;;;;7.80;2.95;;;;;;;18.14;47.61;102054.34;5051824;28;20037;-71
2022/06/16 07:55:18;;;;;;;7.70;2.83;;;;;;;18.19;48.49;102041.59;5052437;28;20029;-71
2022/06/16 07:57:46;;;;;;;5.00;2.80;;;;;;;18.27;48.12;102053.19;5052081;28;20484;-71
2022/06/16 08:00:17;;;;;;;9.25;2.60;;;;;;;18.35;48.16;102072.00;5067207;28;20154;-71
2022/06/16 08:02:42;;;;;;;5.32;2.60;;;;;;;18.42;48.18;102061.69;5086309;28;20097;-71
2022/06/16 08:05:12;;;;;;;6.80;3.00;;;;;;;18.45;47.96;102063.09;5091998;28;20115;-70
2022/06/16 08:07:38;;;;;;;6.93;2.83;;;;;;;18.56;48.13;102067.69;5064409;28;20064;-70
2022/06/16 08:10:05;;;;;;;14.40;3.00;;;;;;;18.58;47.66;102066.38;5033950;28;20079;-71
2022/06/16 08:12:30;;;;;;;4.63;2.20;;;;;;;18.67;46.48;102074.97;5034062;28;20039;-71
2022/06/16 08:14:56;;;;;;;6.45;3.15;;;;;;;18.69;46.73;102077.47;5051694;28;20120;-70
2022/06/16 08:17:25;;;;;;;4.75;2.70;;;;;;;18.66;47.23;102077.97;5052061;28;20048;-70
2022/06/16 08:19:51;;;;;;;4.35;2.88;;;;;;;18.70;46.33;102071.72;5051200;28;20029;-70
2022/06/16 08:22:17;;;;;;;7.43;3.38;;;;;;;18.63;47.04;102075.72;5051866;28;20468;-70
2022/06/16 08:24:43;;;;;;;7.25;3.05;;;;;;;18.69;47.71;102072.84;5052150;28;20033;-70
2022/06/16 08:27:09;;;;;;;6.45;3.10;;;;;;;18.79;47.48;102066.66;5059169;28;20459;-70
2022/06/16 08:29:36;;;;;;;7.28;3.10;;;;;;;18.86;48.36;102077.50;5071546;28;20072;-70
2022/06/16 08:32:01;;;;;;;6.32;2.58;;;;;;;18.93;47.26;102069.91;5071385;28;20032;-70
2022/06/16 08:34:26;;;;;;;4.80;2.70;;;;;;;18.94;46.62;102064.19;5073909;28;20031;-71
2022/06/16 08:36:52;;;;;;;8.02;3.08;;;;;;;18.95;45.93;102054.88;5067760;28;20027;-71
2022/06/16 08:39:17;;;;;;;6.05;3.05;;;;;;;18.94;45.25;102058.69;5067931;28;20028;-71
2022/06/16 08:41:49;;;;;;;7.07;2.92;;;;;;;19.00;45.89;102061.53;5074964;28;20033;-78
2022/06/16 08:44:38;;;;;;;5.63;2.80;;;;;;;19.05;45.43;102058.84;5055575;28;20065;-71
2022/06/16 08:47:21;;;;;;;9.13;2.95;;;;;;;19.06;45.41;102064.06;5055072;28;20025;-71
2022/06/16 08:50:03;;;;;;;7.50;3.00;;;;;;;19.09;45.53;102060.00;5054860;28;20399;-71
2022/06/16 08:52:41;;;;;;;8.40;2.88;;;;;;;19.13;45.61;102067.47;5066004;28;20032;-71
2022/06/16 08:55:21;;;;;;;5.50;2.58;;;;;;;19.26;45.47;102070.94;5039465;28;20043;-72
2022/06/16 08:58:07;;;;;;;8.30;2.53;;;;;;;19.29;44.91;102082.25;5054459;28;20072;-71
2022/06/16 09:00:38;;;;;;;9.63;2.90;;;;;;;19.35;45.71;102090.53;5053090;28;20028;-72
2022/06/16 09:03:26;;;;;;;6.03;2.80;;;;;;;19.38;45.41;102090.84;5065290;28;20052;-71
2022/06/16 09:06:00;;;;;;;9.80;3.05;;;;;;;19.43;45.83;102098.31;5056426;28;20107;-73
2022/06/16 09:08:47;;;;;;;8.13;2.83;;;;;;;19.54;45.49;102100.13;5057078;28;20036;-72
2022/06/16 09:11:54;;;;;;;9.07;2.90;;;;;;;19.58;45.55;102100.44;5054451;28;20135;-73
2022/06/16 09:17:58;;;;;;;11.18;3.13;;;;;;;19.69;46.59;102095.91;5054590;28;20090;-73
2022/06/16 09:20:30;;;;;;;10.27;2.92;;;;;;;19.70;45.69;102100.31;5020431;28;20045;-74
2022/06/16 09:23:28;;;;;;;5.55;2.95;;;;;;;19.81;46.23;102104.88;5054181;28;20492;-72
2022/06/16 09:26:19;;;;;;;9.45;3.25;;;;;;;19.86;45.55;102110.44;5054521;28;20115;-74
2022/06/16 09:28:54;;;;;;;6.78;2.97;;;;;;;19.95;45.17;102100.63;5053223;28;20029;-71
2022/06/16 09:31:38;;;;;;;7.32;3.33;;;;;;;19.98;45.02;102105.63;5058099;28;20055;-69
2022/06/16 09:34:17;;;;;;;8.10;3.10;;;;;;;19.97;44.66;102112.22;5054211;28;20029;-71
2022/06/16 09:36:49;;;;;;;7.60;2.97;;;;;;;19.95;44.43;102100.63;5055076;28;20029;-71
2022/06/16 09:39:19;;;;;;;;;;;;;;;20.05;45.05;102107.34;5054156;28;20041;-75
2022/06/16 09:44:56;;;;;;;6.70;3.30;;;;;;;20.15;44.42;102110.19;5073616;28;20036;-74
2022/06/16 09:47:27;;;;;;;6.93;3.17;;;;;;;20.17;44.92;102108.84;5073978;28;20028;-74
2022/06/16 09:50:03;;;;;;;8.30;3.60;;;;;;;20.26;45.07;102111.97;5070186;28;20024;-74
2022/06/16 09:52:36;;;;;;;6.57;3.60;;;;;;;20.31;45.43;102114.75;5053661;28;20071;-74
2022/06/16 09:55:10;;;;;;;7.35;3.50;;;;;;;20.37;45.32;102107.41;5053505;28;20119;-79
2022/06/16 09:57:45;;;;;;;7.60;3.85;;;;;;;20.38;44.86;102109.03;5053922;28;20075;-75
2022/06/16 10:00:15;;;;;;;8.77;3.35;;;;;;;20.34;44.17;102110.66;5036683;28;20028;-75
2022/06/16 10:02:51;;;;;;;7.35;3.55;;;;;;;20.33;44.71;102101.56;5066324;28;20059;-75
2022/06/16 10:05:37;;;;;;;9.52;3.40;;;;;;;20.30;44.53;102102.09;5093660;28;20615;-75
2022/06/16 10:09:03;;;;;;;5.68;3.40;;;;;;;20.58;46.61;102111.16;5081998;28;20089;-72
2022/06/16 10:12:05;;;;;;;8.98;3.60;;;;;;;20.84;46.34;102100.38;5018862;28;20038;-76
2022/06/16 10:14:42;;;;;;;9.38;3.70;;;;;;;20.91;46.28;102097.41;5072092;28;20016;-75
2022/06/16 10:17:10;;;;;;;11.38;4.25;;;;;;;20.89;45.53;102093.00;5052333;28;20032;-76
2022/06/16 10:19:43;;;;;;;11.05;4.15;;;;;;;20.78;43.49;102102.25;5051963;28;20472;-76
2022/06/16 10:22:10;;;;;;;9.43;3.92;;;;;;;20.89;44.18;102108.66;5035076;28;20021;-76
2022/06/16 10:24:41;;;;;;;10.32;3.70;;;;;;;20.97;45.00;102101.84;5035108;28;20048;-76
2022/06/16 10:27:18;;;;;;;10.00;4.10;;;;;;;20.99;44.27;102105.19;5036961;28;20037;-77
2022/06/16 10:30:04;;;;;;;11.02;3.83;;;;;;;21.02;45.12;102105.47;5055145;28;20464;-76
2022/06/16 10:33:05;;;;;;;9.25;3.50;;;;;;;21.09;45.11;102115.41;5055037;28;20016;-76
2022/06/16 10:35:31;;;;;;;10.10;3.50;;;;;;;21.14;44.30;102115.44;5054681;28;20123;-75
2022/06/16 10:37:57;;;;;;;6.05;3.25;;;;;;;21.21;44.06;102119.63;5045718;28;20060;-76
2022/06/16 10:40:58;;;;;;;6.10;3.17;;;;;;;21.23;43.52;102119.34;5029258;28;20033;-77
2022/06/16 10:43:30;;;;;;;8.05;3.25;;;;;;;21.06;43.35;102117.59;5030561;28;20029;-76
2022/06/16 10:46:27;;;;;;;8.52;3.75;;;;;;;21.03;44.19;102109.88;5030318;28;20026;-77
2022/06/16 10:49:45;;;;;;;4.90;3.28;;;;;;;21.27;44.41;102114.97;5045929;28;20484;-76
2022/06/16 10:52:14;;;;;;;11.85;3.72;;;;;;;21.31;44.58;102116.09;5049952;28;20247;-76
2022/06/16 10:54:58;;;;;;;8.88;3.80;;;;;;;21.29;43.21;102111.94;5033486;28;20048;-77
2022/06/16 10:57:29;;;;;;;9.65;3.42;;;;;;;21.32;43.41;102117.75;5036865;28;20045;-74
2022/06/16 11:00:02;;;;;;;7.60;3.40;;;;;;;21.42;45.52;102109.56;5034032;28;20033;-73
2022/06/16 11:02:32;;;;;;;9.80;2.92;;;;;;;21.50;44.69;102097.22;5057487;28;20080;-73
2022/06/16 11:05:13;;;;;;;5.05;3.33;;;;;;;21.64;44.70;102100.31;5045835;28;20072;-74
2022/06/16 11:07:42;;;;;;;8.45;2.92;;;;;;;21.86;43.28;102107.53;5030765;28;20033;-73
2022/06/16 11:10:27;;;;;;;7.53;3.20;;;;;;;21.94;43.45;102107.03;5029794;28;20034;-73
2022/06/16 11:12:52;;;;;;;8.13;3.65;;;;;;;21.98;42.96;102107.31;5052188;28;20021;-75
2022/06/16 11:15:25;;;;;;;8.52;3.67;;;;;;;21.97;43.14;102100.97;5053419;28;20029;-75
2022/06/16 11:17:56;;;;;;;8.15;3.78;;;;;;;21.93;43.11;102105.38;5072253;28;20029;-72
2022/06/16 11:20:43;;;;;;;11.60;3.55;;;;;;;21.97;44.04;102098.22;5072247;28;20025;-75
2022/06/16 11:23:27;;;;;;;8.90;3.38;;;;;;;21.99;43.72;102103.47;5072070;28;20029;-73
2022/06/16 11:26:09;;;;;;;12.32;3.40;;;;;;;22.23;43.34;102099.09;5065004;28;20082;-75
2022/06/16 11:28:54;;;;;;;5.45;2.80;;;;;;;22.48;43.84;102100.25;5050901;28;20051;-73
2022/06/16 11:31:23;;;;;;;5.28;2.95;;;;;;;22.54;42.40;102098.31;5052044;28;20509;-74
2022/06/16 11:34:06;;;;;;;8.43;3.13;;;;;;;22.81;43.73;102098.84;5034164;28;20025;-72
2022/06/16 11:37:00;;;;;;;4.43;3.13;;;;;;;22.81;41.88;102098.84;5064461;28;20039;-73
2022/06/16 11:39:35;;;;;;;8.80;3.30;;;;;;;22.74;42.45;102094.72;5071985;28;20490;-75
2022/06/16 11:42:00;;;;;;;5.20;2.78;;;;;;;22.74;42.17;102090.03;5071373;28;20036;-74
2022/06/16 11:44:26;;;;;;;11.07;3.40;;;;;;;22.79;41.17;102092.78;5072461;28;20035;-73
2022/06/16 11:47:01;;;;;;;7.28;3.13;;;;;;;22.83;42.01;102093.06;5072245;28;20029;-74
2022/06/16 11:49:39;;;;;;;5.95;2.97;;;;;;;22.89;41.88;102099.38;5054095;28;20036;-73
2022/06/16 11:52:27;;;;;;;6.15;3.20;;;;;;;23.01;42.03;102097.19;5072036;28;20029;-72
2022/06/16 11:55:08;;;;;;;10.95;3.00;;;;;;;23.08;41.01;102100.44;5072173;28;20032;-75
2022/06/16 11:57:57;;;;;;;5.75;2.60;;;;;;;23.24;42.16;102097.69;5072280;28;20048;-75
2022/06/16 12:00:49;;;;;;;7.10;2.85;;;;;;;23.47;41.66;102110.03;5047390;28;20476;-74
2022/06/16 12:03:37;;;;;;;;;;;;;;;23.59;42.61;102109.72;5041265;28;20044;-75
2022/06/16 12:06:05;;;;;;;8.90;3.38;;;;;;;23.53;39.61;102111.69;5033907;28;19935;-72